Dallas, Texas
Traffic Map
Current Weather Conditions
Dallas, Texas
Few Clouds
Few Clouds
87°
Feels Like: 91°
Wind Chill: 87° Ceiling: Unl
Heat Index: 91° Visibility: 10mi
Dew Point: 69° Wind: 7mph
Humidity: 55% Direction: 210° (SSW)
Pressure: 30.02in Gusts: 0mph
Raw Report DataKDAL 280753Z 21006KT 10SM FEW085 31/21 A3002 RMK AO2 SLP157 T03060206
Traffic Incident Summary
Active as of:
Severity:
Category:
InformationThere was an issue retrieving the traffic information for this location. Please try a different location or try again shortly.
Advertisements
Track Severe Weather on mobile